createdAt,value
2018-09-10T00:01:08.345Z,16.40
2018-09-10T00:07:12.120Z,16.50
2018-09-10T00:13:15.634Z,16.60
2018-09-10T00:19:19.142Z,16.80
2018-09-10T00:25:22.973Z,17.00
2018-09-10T00:31:26.323Z,17.10
2018-09-10T00:37:30.351Z,17.00
2018-09-10T00:43:33.969Z,17.00
2018-09-10T00:49:37.361Z,17.10
2018-09-10T00:55:42.129Z,17.20
2018-09-10T01:01:45.771Z,17.20
2018-09-10T01:07:49.245Z,17.20
2018-09-10T01:13:53.366Z,17.10
2018-09-10T01:19:56.945Z,17.10
2018-09-10T01:26:01.418Z,17.00
2018-09-10T01:32:05.041Z,16.90
2018-09-10T01:38:09.014Z,16.90
2018-09-10T01:44:12.885Z,16.90
2018-09-10T01:50:16.281Z,16.90
2018-09-10T01:56:19.702Z,16.90
2018-09-10T02:02:23.830Z,16.80
2018-09-10T02:08:27.375Z,16.70
2018-09-10T02:14:31.177Z,16.70
2018-09-10T02:20:34.532Z,16.70
2018-09-10T02:26:37.981Z,16.60
2018-09-10T02:32:41.411Z,16.60
2018-09-10T02:38:44.895Z,16.50
2018-09-10T02:44:48.412Z,16.40
2018-09-10T02:50:51.953Z,16.30
2018-09-10T02:56:55.755Z,16.20
2018-09-10T03:02:59.428Z,16.20
2018-09-10T03:09:03.756Z,16.30
2018-09-10T03:15:07.284Z,16.30
2018-09-10T03:21:11.157Z,16.40
2018-09-10T03:27:14.959Z,16.50
2018-09-10T03:33:18.744Z,16.60
2018-09-10T03:39:22.454Z,16.60
2018-09-10T03:45:25.999Z,16.70
2018-09-10T03:51:29.662Z,16.60
2018-09-10T03:57:33.616Z,16.60
2018-09-10T04:03:37.429Z,16.60
2018-09-10T04:09:42.276Z,16.50
2018-09-10T04:15:46.080Z,16.40
2018-09-10T04:21:50.304Z,16.40
2018-09-10T04:27:54.874Z,16.30
2018-09-10T04:33:58.702Z,16.10
2018-09-10T04:40:02.261Z,16.00
2018-09-10T04:46:05.751Z,16.10
2018-09-10T04:52:09.524Z,16.00
2018-09-10T04:58:13.420Z,16.00
2018-09-10T05:04:17.179Z,16.00
2018-09-10T05:10:20.697Z,16.10
2018-09-10T05:16:24.406Z,16.20
2018-09-10T05:22:33.276Z,16.20
2018-09-10T05:28:36.803Z,16.20
2018-09-10T05:34:40.461Z,16.20
2018-09-10T05:40:43.982Z,16.20
2018-09-10T05:46:47.735Z,16.20
2018-09-10T05:52:51.333Z,16.20
2018-09-10T05:58:54.763Z,16.30
2018-09-10T06:04:58.356Z,16.40
2018-09-10T06:11:02.381Z,16.50
2018-09-10T06:17:06.222Z,16.70
2018-09-10T06:23:09.653Z,16.80
2018-09-10T06:29:14.084Z,16.90
2018-09-10T06:35:18.218Z,17.00
2018-09-10T06:41:22.049Z,17.20
2018-09-10T06:47:25.726Z,17.30
2018-09-10T06:53:29.358Z,17.40
2018-09-10T06:59:33.437Z,17.50
2018-09-10T07:05:37.149Z,17.60
2018-09-10T07:11:40.702Z,17.70
2018-09-10T07:17:44.415Z,17.90
2018-09-10T07:23:48.065Z,18.00
2018-09-10T07:29:52.531Z,18.10
2018-09-10T07:35:56.238Z,18.20
2018-09-10T07:42:00.994Z,18.30
2018-09-10T07:48:05.008Z,18.40
2018-09-10T07:54:08.537Z,18.50
2018-09-10T08:00:12.532Z,18.50
2018-09-10T08:06:17.069Z,18.70
2018-09-10T08:12:20.449Z,18.90
2018-09-10T08:18:24.866Z,19.00
2018-09-10T08:24:28.385Z,19.20
2018-09-10T08:30:31.856Z,19.40
2018-09-10T08:36:35.989Z,19.60
2018-09-10T08:42:39.599Z,19.70
2018-09-10T08:48:43.744Z,19.90
2018-09-10T08:54:47.947Z,20.00
2018-09-10T09:00:51.310Z,20.30
2018-09-10T09:06:55.600Z,20.40
2018-09-10T09:12:59.190Z,20.50
2018-09-10T09:19:02.805Z,20.90
2018-09-10T09:25:06.438Z,20.90
2018-09-10T09:31:17.296Z,21.20
2018-09-10T09:37:26.408Z,21.40
2018-09-10T09:43:42.188Z,21.50
2018-09-10T09:49:45.566Z,21.90
2018-09-10T09:55:49.431Z,22.20
2018-09-10T10:01:57.380Z,22.20
2018-09-10T10:08:01.276Z,22.10
2018-09-10T10:14:05.751Z,22.20
2018-09-10T10:20:09.165Z,22.30
2018-09-10T10:26:12.874Z,22.50
2018-09-10T10:32:16.436Z,22.40
2018-09-10T10:38:19.710Z,22.40
2018-09-10T10:44:23.442Z,22.40
2018-09-10T10:50:27.603Z,22.30
2018-09-10T10:56:31.913Z,22.40
2018-09-10T11:02:35.701Z,22.70
2018-09-10T11:08:39.195Z,22.80
2018-09-10T11:14:42.817Z,22.90
2018-09-10T11:20:53.547Z,22.90
2018-09-10T11:26:57.110Z,23.00
2018-09-10T11:33:00.828Z,23.20
2018-09-10T11:39:05.690Z,23.30
2018-09-10T11:45:10.068Z,23.30
2018-09-10T11:51:13.904Z,23.30
2018-09-10T11:57:18.004Z,23.30
2018-09-10T12:03:21.488Z,23.20
2018-09-10T12:09:25.463Z,23.10
2018-09-10T12:15:29.584Z,23.10
2018-09-10T12:21:33.849Z,23.00
2018-09-10T12:27:37.957Z,22.90
2018-09-10T12:33:42.137Z,22.80
2018-09-10T12:39:46.526Z,22.80
2018-09-10T12:45:50.108Z,22.90
2018-09-10T12:51:53.761Z,23.00
2018-09-10T12:57:57.385Z,23.00
2018-09-10T13:04:00.807Z,23.10
2018-09-10T13:10:04.342Z,23.40
2018-09-10T13:16:07.862Z,23.50
2018-09-10T13:22:11.205Z,23.60
2018-09-10T13:28:14.719Z,23.50
2018-09-10T13:34:18.124Z,23.30
2018-09-10T13:40:21.830Z,23.10
2018-09-10T13:46:26.492Z,22.90
2018-09-10T13:52:31.150Z,22.80
2018-09-10T13:58:37.822Z,22.80
2018-09-10T14:04:41.650Z,22.90
2018-09-10T14:10:45.202Z,23.10
2018-09-10T14:16:51.482Z,23.00
2018-09-10T14:22:55.856Z,23.10
2018-09-10T14:29:00.730Z,23.20
2018-09-10T14:35:05.289Z,23.20
2018-09-10T14:41:09.471Z,23.20
2018-09-10T14:47:13.519Z,23.30
2018-09-10T14:53:17.110Z,23.40
2018-09-10T14:59:21.494Z,23.40
2018-09-10T15:05:25.853Z,23.30
2018-09-10T15:11:29.502Z,23.30
2018-09-10T15:17:33.381Z,23.20
2018-09-10T15:23:37.314Z,22.90
2018-09-10T15:29:47.823Z,22.70
2018-09-10T15:35:51.450Z,22.60
2018-09-10T15:41:55.398Z,22.50
2018-09-10T15:47:59.345Z,22.50
2018-09-10T15:54:03.202Z,22.50
2018-09-10T16:00:07.049Z,22.50
2018-09-10T16:06:11.979Z,22.50
2018-09-10T16:12:15.758Z,22.50
2018-09-10T16:18:20.305Z,22.60
2018-09-10T16:24:24.382Z,22.60
2018-09-10T16:30:28.152Z,22.50
2018-09-10T16:36:31.619Z,22.50
2018-09-10T16:42:35.158Z,22.50
2018-09-10T16:48:38.872Z,22.30
2018-09-10T16:54:42.781Z,22.30
2018-09-10T17:00:46.531Z,22.20
2018-09-10T17:06:50.296Z,22.10
2018-09-10T17:12:53.962Z,22.00
2018-09-10T17:18:57.450Z,21.90
2018-09-10T17:25:01.128Z,21.80
2018-09-10T17:31:04.720Z,21.70
2018-09-10T17:37:08.659Z,21.60
2018-09-10T17:43:13.509Z,21.50
2018-09-10T17:49:26.749Z,21.40
2018-09-10T17:55:33.240Z,21.10
2018-09-10T18:01:40.234Z,20.80
2018-09-10T18:07:45.242Z,20.50
2018-09-10T18:13:50.934Z,20.30
2018-09-10T18:19:55.952Z,20.20
2018-09-10T18:26:00.902Z,20.20
2018-09-10T18:32:07.138Z,20.00
2018-09-10T18:38:11.506Z,19.80
2018-09-10T18:44:16.635Z,19.50
2018-09-10T18:50:21.522Z,19.30
2018-09-10T18:56:26.115Z,19.20
2018-09-10T19:02:31.429Z,19.10
2018-09-10T19:08:36.229Z,19.00
2018-09-10T19:14:41.093Z,18.70
2018-09-10T19:20:45.401Z,18.50
2018-09-10T19:26:48.947Z,18.30
2018-09-10T19:32:53.968Z,18.20
2018-09-10T19:38:57.501Z,18.00
2018-09-10T19:45:01.285Z,17.80
2018-09-10T19:51:04.869Z,17.70
2018-09-10T19:57:09.006Z,17.70
2018-09-10T20:03:19.087Z,17.70
2018-09-10T20:09:23.900Z,17.70
2018-09-10T20:15:28.867Z,17.70
2018-09-10T20:21:34.012Z,17.70
2018-09-10T20:27:39.291Z,17.60
2018-09-10T20:33:49.219Z,17.50
2018-09-10T20:39:53.419Z,17.50
2018-09-10T20:45:57.435Z,17.40
2018-09-10T20:52:01.170Z,17.40
2018-09-10T20:58:04.895Z,17.30
2018-09-10T21:04:08.953Z,17.30
2018-09-10T21:10:12.966Z,17.30
2018-09-10T21:16:16.973Z,17.30
2018-09-10T21:22:20.632Z,17.30
2018-09-10T21:28:24.545Z,17.30
2018-09-10T21:34:28.246Z,17.30
2018-09-10T21:40:32.025Z,17.30
2018-09-10T21:46:35.602Z,17.30
2018-09-10T21:52:39.328Z,17.20
2018-09-10T21:58:43.363Z,17.20
2018-09-10T22:04:47.546Z,17.20
2018-09-10T22:10:51.281Z,17.10
2018-09-10T22:16:55.714Z,17.10
2018-09-10T22:22:59.452Z,16.90
2018-09-10T22:29:02.831Z,16.80
2018-09-10T22:35:06.694Z,16.80
2018-09-10T22:41:10.300Z,16.70
2018-09-10T22:47:13.924Z,16.60
2018-09-10T22:53:17.790Z,16.60
2018-09-10T22:59:21.284Z,16.40
2018-09-10T23:05:25.017Z,16.20
2018-09-10T23:11:28.841Z,16.00
2018-09-10T23:17:32.265Z,15.90
2018-09-10T23:23:36.549Z,15.90
2018-09-10T23:29:40.835Z,15.80
2018-09-10T23:35:44.705Z,15.60
2018-09-10T23:41:48.249Z,15.50
2018-09-10T23:47:51.785Z,15.40
2018-09-10T23:53:55.754Z,15.40
2018-09-10T23:59:59.274Z,15.40
